WBSB Airport Information

Runway Information
Runway 03 Length 12000 ft width 150 ft
Elevation 20 ft Threshold 0 ft Heading 31
Runway 21 Length 12000 ft Width 150 ft
Elevation 72 ft Threshold 0 ft Heading 211
Airport Frequencies
Type APP Name RADAR Frequency 121.3 MHZ
Type ATIS Name ATIS Frequency 126.8 MHZ
Type GND Name GND Frequency 121.9 MHZ
Type TWR Name TWR Frequency 118.7 MHZ
Airport Navaids
Type NDB Name Brunei Frequency 318 KHZ
Type VOR-DME Name Brunei Frequency 112000 KHZ
Airport Weather Information & NOTAM
ADDS - METARS form results

(2324 UTC 01 August 2021)
Data provider http://aviationweather.gov/metar/data/
 
METAR text: WBSB 012300Z 16004KT 9000 -RA FEW004 FEW015CB BKN150 24/24 Q1012 NOSIG
Conditions at: WBSB (BRUNEI INTL AIRP, MY) observed 2300 UTC 01 August 2021
Temperature: 24.0°C (75°F)
Dewpoint: 24.0°C (75°F) [RH = 100%]
Pressure (altimeter): 29.88 inches Hg (1012.0 mb)
Winds: from the SSE (160 degrees) at 5 MPH (4 knots; 2.1 m/s)
Visibility: 6 miles ( 9 km)
Ceiling: 15000 feet AGL
Clouds: few clouds at 400 feet AGL
few clouds at 1500 feet AGL
broken clouds at 15000 feet AGL
Weather: -RA  (light rain)

METAR text: WBSB 012230Z 15004KT 9999 -RA FEW004 FEW015CB BKN150 24/24 Q1011 NOSIG
Conditions at: WBSB (BRUNEI INTL AIRP, MY) observed 2230 UTC 01 August 2021
Temperature: 24.0°C (75°F)
Dewpoint: 24.0°C (75°F) [RH = 100%]
Pressure (altimeter): 29.85 inches Hg (1011.0 mb)
Winds: from the SSE (150 degrees) at 5 MPH (4 knots; 2.1 m/s)
Visibility: 6 or more miles (10+ km)
Ceiling: 15000 feet AGL
Clouds: few clouds at 400 feet AGL
few clouds at 1500 feet AGL
broken clouds at 15000 feet AGL
Weather: -RA  (light rain)

Forecast for: WBSB (BRUNEI INTL AIRP, MY)
Text: TAF WBSB 012250Z 0200/0306 20006KT 9999 SCT014 FEW015CB BKN140
Forecast period: 0000 UTC 02 August 2021 to 0600 UTC 03 August 2021
Forecast type: FROM: standard forecast or significant change
Winds: from the SSW (200 degrees) at 7 MPH (6 knots; 3.1 m/s)
Visibility: 6 or more miles (10+ km)
Ceiling: 14000 feet AGL
Clouds: scattered clouds at 1400 feet AGL
few clouds at 1500 feet AGL
broken clouds at 14000 feet AGL
Weather: no significant weather forecast for this period
Text: TEMPO 0204/0206 27011KT FEW015
Forecast period: 0400 to 0600 UTC 02 August 2021
Forecast type: TEMPORARY: The following changes expected for less than half the time period
Winds: from the W (270 degrees) at 13 MPH (11 knots; 5.7 m/s)
Visibility: missing
Ceiling: at least 12,000 feet AGL
Clouds: few clouds at 1500 feet AGL
Weather: no significant weather forecast for this period